Terminal Aerodrome Forecast
Issued by NWS Rapid City, SD

Home | Current Version | Previous Version | Graphics & Text | Print | Product List | Glossary On
Versions: 1 2 3 4 5 6 7 8 9 10 11 12 13 14 15
000
FTUS43 KUNR 302002 AAB
TAFRAP
TAF AMD
KRAP 302002Z 3020/0118 34020G30KT P6SM SCT050 BKN100
      TEMPO 3020/3022 -TSRA BKN050CB
     FM010200 32008KT P6SM SCT250=

USA.gov is the U.S. government's official web portal to all federal, state and local government web resources and services.